Seoul Air Base
RKSM : now visible

Airfield :











YOU CAN JOIN US ON...

 
LOGIN :

Register | Disclaimer

   EN    FR    IT 

 









Legend :    VFR   Marginal VFR   IFR   Intensive IFR   Very Intensive IFR
Visi :
Ceiling :
>= 8 km
>= 3000ft
5 to 8 km
1000 to 3000 ft
1500m to 5 km
500 to 1000 ft
800 to 1500m
200 to 500 ft
< 800m
< 200 ft
Symbols :   Thunderstorms  Fog  Heavy snow  Heavy precipitations  Wind > 20 kt






- Airport Elevation : 92 ft
- IATA code : SSN


RKSM - Seoul Air Base

CURRENT METAR :
  • 261553Z 31007KT 9999 SCT015 17/15 A2960

EXPIRED METARs :
  • 261448Z 31002KT 9000 BR FEW005 BKN015 OVC030 18/16 A2959 RMK CIG015

TAF TAF RKSM
Valid from the 26 at 12:00 until the 27 at 18:00 UTC


261100Z 2612/2718 21006KT 4800 -RA BR BKN015 OVC030
BECMG 2615/2616 30006KT 8000 BR BKN030
BECMG 2623/2624 30008KT 9999 NSW SCT030 TN17/2621Z TX24/2706Z
RKRR FIR / Asia



MET'MAP, your aeronautical weather chart ! - Copyright ORBIFLY December 2007 - Disclaimer

ORBIFLY MET'MAP TEAM :

Programming & Development : Alexandra Zaïnal
Original concept : Baudouin d'Aumeries
Technical & hardware support : Manuel Goepfert
Assistance : Marc-Olivier Méhu




SOURCES & CREDITS :

   NOAA       Earth
Advisory